sensor_id;sensor_type;location;lat;lon;timestamp;pressure;altitude;pressure_sealevel;temperature;humidity
9077;BME280;4574;51.072;17.174;2022-09-09T00:01:26;63291.66;;;-139.42;100.00
9077;BME280;4574;51.072;17.174;2022-09-09T00:04:00;63291.66;;;-139.42;100.00
9077;BME280;4574;51.072;17.174;2022-09-09T00:06:42;63291.66;;;-139.42;100.00
9077;BME280;4574;51.072;17.174;2022-09-09T00:09:16;63291.66;;;-139.42;100.00
9077;BME280;4574;51.072;17.174;2022-09-09T00:11:49;63291.66;;;-139.42;100.00
9077;BME280;4574;51.072;17.174;2022-09-09T00:14:35;63291.66;;;-139.42;100.00
9077;BME280;4574;51.072;17.174;2022-09-09T00:17:11;63291.66;;;-139.42;100.00
9077;BME280;4574;51.072;17.174;2022-09-09T00:19:46;63291.66;;;-139.42;100.00
9077;BME280;4574;51.072;17.174;2022-09-09T00:22:18;63291.66;;;-139.42;100.00
9077;BME280;4574;51.072;17.174;2022-09-09T00:24:51;63291.66;;;-139.42;100.00
9077;BME280;4574;51.072;17.174;2022-09-09T00:27:26;63291.66;;;-139.42;100.00
9077;BME280;4574;51.072;17.174;2022-09-09T00:30:01;63291.66;;;-139.42;100.00
9077;BME280;4574;51.072;17.174;2022-09-09T00:32:33;63291.66;;;-139.42;100.00
9077;BME280;4574;51.072;17.174;2022-09-09T00:35:13;63291.66;;;-139.42;100.00
9077;BME280;4574;51.072;17.174;2022-09-09T00:37:46;63291.66;;;-139.42;100.00
9077;BME280;4574;51.072;17.174;2022-09-09T00:40:25;63291.66;;;-139.42;100.00
9077;BME280;4574;51.072;17.174;2022-09-09T00:43:08;63291.66;;;-139.42;100.00
9077;BME280;4574;51.072;17.174;2022-09-09T00:46:08;63291.66;;;-139.42;100.00
9077;BME280;4574;51.072;17.174;2022-09-09T00:48:49;63291.66;;;-139.42;100.00
9077;BME280;4574;51.072;17.174;2022-09-09T00:51:27;63291.66;;;-139.42;100.00
9077;BME280;4574;51.072;17.174;2022-09-09T00:54:12;63291.66;;;-139.42;100.00
9077;BME280;4574;51.072;17.174;2022-09-09T00:56:47;63291.66;;;-139.42;100.00
9077;BME280;4574;51.072;17.174;2022-09-09T00:59:27;63291.66;;;-139.42;100.00
9077;BME280;4574;51.072;17.174;2022-09-09T01:01:58;63291.66;;;-139.42;100.00
9077;BME280;4574;51.072;17.174;2022-09-09T01:04:34;63291.66;;;-139.42;100.00
9077;BME280;4574;51.072;17.174;2022-09-09T01:07:13;63291.66;;;-139.42;100.00
9077;BME280;4574;51.072;17.174;2022-09-09T01:09:52;63291.66;;;-139.42;100.00
9077;BME280;4574;51.072;17.174;2022-09-09T01:12:31;63291.66;;;-139.42;100.00
9077;BME280;4574;51.072;17.174;2022-09-09T01:15:09;63291.66;;;-139.42;100.00
9077;BME280;4574;51.072;17.174;2022-09-09T01:17:53;63291.66;;;-139.42;100.00
9077;BME280;4574;51.072;17.174;2022-09-09T01:20:31;63291.66;;;-139.42;100.00
9077;BME280;4574;51.072;17.174;2022-09-09T01:23:19;63291.66;;;-139.42;100.00
9077;BME280;4574;51.072;17.174;2022-09-09T01:26:17;63291.66;;;-139.42;100.00
9077;BME280;4574;51.072;17.174;2022-09-09T01:28:48;63291.66;;;-139.42;100.00
9077;BME280;4574;51.072;17.174;2022-09-09T01:31:21;63291.66;;;-139.42;100.00
9077;BME280;4574;51.072;17.174;2022-09-09T01:33:51;63291.66;;;-139.42;100.00
9077;BME280;4574;51.072;17.174;2022-09-09T01:36:26;63291.66;;;-139.42;100.00
9077;BME280;4574;51.072;17.174;2022-09-09T01:38:57;63291.66;;;-139.42;100.00
9077;BME280;4574;51.072;17.174;2022-09-09T01:41:28;63291.66;;;-139.42;100.00
9077;BME280;4574;51.072;17.174;2022-09-09T01:43:56;63291.66;;;-139.42;100.00
9077;BME280;4574;51.072;17.174;2022-09-09T01:46:26;63291.66;;;-139.42;100.00
9077;BME280;4574;51.072;17.174;2022-09-09T01:48:57;63291.66;;;-139.42;100.00
9077;BME280;4574;51.072;17.174;2022-09-09T01:51:27;63291.66;;;-139.42;100.00
9077;BME280;4574;51.072;17.174;2022-09-09T01:53:56;63291.66;;;-139.42;100.00
9077;BME280;4574;51.072;17.174;2022-09-09T01:56:35;63291.66;;;-139.42;100.00
9077;BME280;4574;51.072;17.174;2022-09-09T01:59:20;63291.66;;;-139.42;100.00
9077;BME280;4574;51.072;17.174;2022-09-09T02:02:01;63291.66;;;-139.42;100.00
9077;BME280;4574;51.072;17.174;2022-09-09T02:04:37;63291.66;;;-139.42;100.00
9077;BME280;4574;51.072;17.174;2022-09-09T02:07:17;63291.66;;;-139.42;100.00
9077;BME280;4574;51.072;17.174;2022-09-09T02:10:00;63291.66;;;-139.42;100.00
9077;BME280;4574;51.072;17.174;2022-09-09T02:12:31;63291.66;;;-139.42;100.00
9077;BME280;4574;51.072;17.174;2022-09-09T02:15:03;63291.66;;;-139.42;100.00
9077;BME280;4574;51.072;17.174;2022-09-09T02:17:35;63291.66;;;-139.42;100.00
9077;BME280;4574;51.072;17.174;2022-09-09T02:20:08;63291.66;;;-139.42;100.00
9077;BME280;4574;51.072;17.174;2022-09-09T02:22:39;63291.66;;;-139.42;100.00
9077;BME280;4574;51.072;17.174;2022-09-09T02:25:13;63291.66;;;-139.42;100.00
9077;BME280;4574;51.072;17.174;2022-09-09T02:27:46;63291.66;;;-139.42;100.00
9077;BME280;4574;51.072;17.174;2022-09-09T02:30:16;63291.66;;;-139.42;100.00
9077;BME280;4574;51.072;17.174;2022-09-09T02:32:48;63291.66;;;-139.42;100.00
9077;BME280;4574;51.072;17.174;2022-09-09T02:35:23;63291.66;;;-139.42;100.00
9077;BME280;4574;51.072;17.174;2022-09-09T02:37:55;63291.66;;;-139.42;100.00
9077;BME280;4574;51.072;17.174;2022-09-09T02:40:26;63291.66;;;-139.42;100.00
9077;BME280;4574;51.072;17.174;2022-09-09T02:42:56;63291.66;;;-139.42;100.00
9077;BME280;4574;51.072;17.174;2022-09-09T02:45:34;63291.66;;;-139.42;100.00
9077;BME280;4574;51.072;17.174;2022-09-09T02:48:11;63291.66;;;-139.42;100.00
9077;BME280;4574;51.072;17.174;2022-09-09T02:50:50;63291.66;;;-139.42;100.00
9077;BME280;4574;51.072;17.174;2022-09-09T02:53:26;63291.66;;;-139.42;100.00
9077;BME280;4574;51.072;17.174;2022-09-09T02:56:00;63291.66;;;-139.42;100.00
9077;BME280;4574;51.072;17.174;2022-09-09T02:58:34;63291.66;;;-139.42;100.00
9077;BME280;4574;51.072;17.174;2022-09-09T03:01:03;63291.66;;;-139.42;100.00
9077;BME280;4574;51.072;17.174;2022-09-09T03:03:32;63291.66;;;-139.42;100.00
9077;BME280;4574;51.072;17.174;2022-09-09T03:06:01;63291.66;;;-139.42;100.00
9077;BME280;4574;51.072;17.174;2022-09-09T03:08:30;63291.66;;;-139.42;100.00
9077;BME280;4574;51.072;17.174;2022-09-09T03:10:59;63291.66;;;-139.42;100.00
9077;BME280;4574;51.072;17.174;2022-09-09T03:13:29;63291.66;;;-139.42;100.00
9077;BME280;4574;51.072;17.174;2022-09-09T03:16:00;63291.66;;;-139.42;100.00
9077;BME280;4574;51.072;17.174;2022-09-09T03:18:28;63291.66;;;-139.42;100.00
9077;BME280;4574;51.072;17.174;2022-09-09T03:20:57;63291.66;;;-139.42;100.00
9077;BME280;4574;51.072;17.174;2022-09-09T03:23:26;63291.66;;;-139.42;100.00
9077;BME280;4574;51.072;17.174;2022-09-09T03:25:55;63291.66;;;-139.42;100.00
9077;BME280;4574;51.072;17.174;2022-09-09T03:28:25;63291.66;;;-139.42;100.00
9077;BME280;4574;51.072;17.174;2022-09-09T03:31:00;63291.66;;;-139.42;100.00
9077;BME280;4574;51.072;17.174;2022-09-09T03:33:30;63291.66;;;-139.42;100.00
9077;BME280;4574;51.072;17.174;2022-09-09T03:35:59;63291.66;;;-139.42;100.00
9077;BME280;4574;51.072;17.174;2022-09-09T03:38:28;63291.66;;;-139.42;100.00
9077;BME280;4574;51.072;17.174;2022-09-09T03:40:56;63291.66;;;-139.42;100.00
9077;BME280;4574;51.072;17.174;2022-09-09T03:43:27;63291.66;;;-139.42;100.00
9077;BME280;4574;51.072;17.174;2022-09-09T03:45:56;63291.66;;;-139.42;100.00
9077;BME280;4574;51.072;17.174;2022-09-09T03:48:27;63291.66;;;-139.42;100.00
9077;BME280;4574;51.072;17.174;2022-09-09T03:50:56;63291.66;;;-139.42;100.00
9077;BME280;4574;51.072;17.174;2022-09-09T03:53:28;63291.66;;;-139.42;100.00
9077;BME280;4574;51.072;17.174;2022-09-09T03:55:57;63291.66;;;-139.42;100.00
9077;BME280;4574;51.072;17.174;2022-09-09T03:58:28;63291.66;;;-139.42;100.00
9077;BME280;4574;51.072;17.174;2022-09-09T04:00:58;63291.66;;;-139.42;100.00
9077;BME280;4574;51.072;17.174;2022-09-09T04:03:29;63291.66;;;-139.42;100.00
9077;BME280;4574;51.072;17.174;2022-09-09T04:06:00;63291.66;;;-139.42;100.00
9077;BME280;4574;51.072;17.174;2022-09-09T04:08:29;63291.66;;;-139.42;100.00
9077;BME280;4574;51.072;17.174;2022-09-09T04:10:59;63291.66;;;-139.42;100.00
9077;BME280;4574;51.072;17.174;2022-09-09T04:13:29;63291.66;;;-139.42;100.00
9077;BME280;4574;51.072;17.174;2022-09-09T04:15:58;63291.66;;;-139.42;100.00
9077;BME280;4574;51.072;17.174;2022-09-09T04:18:29;63291.66;;;-139.42;100.00
9077;BME280;4574;51.072;17.174;2022-09-09T04:20:58;63291.66;;;-139.42;100.00
9077;BME280;4574;51.072;17.174;2022-09-09T04:23:28;63291.66;;;-139.42;100.00
9077;BME280;4574;51.072;17.174;2022-09-09T04:25:58;63291.66;;;-139.42;100.00
9077;BME280;4574;51.072;17.174;2022-09-09T04:28:29;63291.66;;;-139.42;100.00
9077;BME280;4574;51.072;17.174;2022-09-09T04:31:04;63291.66;;;-139.42;100.00
9077;BME280;4574;51.072;17.174;2022-09-09T04:33:35;63291.66;;;-139.42;100.00
9077;BME280;4574;51.072;17.174;2022-09-09T04:36:06;63291.66;;;-139.42;100.00
9077;BME280;4574;51.072;17.174;2022-09-09T04:38:37;63291.66;;;-139.42;100.00
9077;BME280;4574;51.072;17.174;2022-09-09T04:41:06;63291.66;;;-139.42;100.00
9077;BME280;4574;51.072;17.174;2022-09-09T04:43:38;63291.66;;;-139.42;100.00
9077;BME280;4574;51.072;17.174;2022-09-09T04:46:07;63291.66;;;-139.42;100.00
9077;BME280;4574;51.072;17.174;2022-09-09T04:48:37;63291.66;;;-139.42;100.00
9077;BME280;4574;51.072;17.174;2022-09-09T04:51:09;63291.66;;;-139.42;100.00
9077;BME280;4574;51.072;17.174;2022-09-09T04:53:39;63291.66;;;-139.42;100.00
9077;BME280;4574;51.072;17.174;2022-09-09T04:56:10;63291.66;;;-139.42;100.00
9077;BME280;4574;51.072;17.174;2022-09-09T04:58:39;63291.66;;;-139.42;100.00
9077;BME280;4574;51.072;17.174;2022-09-09T05:01:11;63291.66;;;-139.42;100.00
9077;BME280;4574;51.072;17.174;2022-09-09T05:03:42;63291.66;;;-139.42;100.00
9077;BME280;4574;51.072;17.174;2022-09-09T05:06:13;63291.66;;;-139.42;100.00
9077;BME280;4574;51.072;17.174;2022-09-09T05:08:43;63291.66;;;-139.42;100.00
9077;BME280;4574;51.072;17.174;2022-09-09T05:11:16;63291.66;;;-139.42;100.00
9077;BME280;4574;51.072;17.174;2022-09-09T05:13:46;63291.66;;;-139.42;100.00
9077;BME280;4574;51.072;17.174;2022-09-09T05:16:15;63291.66;;;-139.42;100.00
9077;BME280;4574;51.072;17.174;2022-09-09T05:18:45;63291.66;;;-139.42;100.00
9077;BME280;4574;51.072;17.174;2022-09-09T05:21:15;63291.66;;;-139.42;100.00
9077;BME280;4574;51.072;17.174;2022-09-09T05:23:45;63291.66;;;-139.42;100.00
9077;BME280;4574;51.072;17.174;2022-09-09T05:26:15;63291.66;;;-139.42;100.00
9077;BME280;4574;51.072;17.174;2022-09-09T05:28:45;63291.66;;;-139.42;100.00
9077;BME280;4574;51.072;17.174;2022-09-09T05:31:15;63291.66;;;-139.42;100.00
9077;BME280;4574;51.072;17.174;2022-09-09T05:33:47;63291.66;;;-139.42;100.00
9077;BME280;4574;51.072;17.174;2022-09-09T05:36:18;63291.66;;;-139.42;100.00
9077;BME280;4574;51.072;17.174;2022-09-09T05:38:47;63291.66;;;-139.42;100.00
9077;BME280;4574;51.072;17.174;2022-09-09T05:41:17;63291.66;;;-139.42;100.00
9077;BME280;4574;51.072;17.174;2022-09-09T05:43:47;63291.66;;;-139.42;100.00
9077;BME280;4574;51.072;17.174;2022-09-09T05:46:17;63291.66;;;-139.42;100.00
9077;BME280;4574;51.072;17.174;2022-09-09T05:48:49;63291.66;;;-139.42;100.00
9077;BME280;4574;51.072;17.174;2022-09-09T05:51:19;63291.66;;;-139.42;100.00
9077;BME280;4574;51.072;17.174;2022-09-09T05:53:49;63291.66;;;-139.42;100.00
9077;BME280;4574;51.072;17.174;2022-09-09T05:56:21;63291.66;;;-139.42;100.00
9077;BME280;4574;51.072;17.174;2022-09-09T05:58:51;63291.66;;;-139.42;100.00
9077;BME280;4574;51.072;17.174;2022-09-09T06:01:22;63291.66;;;-139.42;100.00
9077;BME280;4574;51.072;17.174;2022-09-09T06:03:53;63291.66;;;-139.42;100.00
9077;BME280;4574;51.072;17.174;2022-09-09T06:06:23;63291.66;;;-139.42;100.00
9077;BME280;4574;51.072;17.174;2022-09-09T06:08:54;63291.66;;;-139.42;100.00
9077;BME280;4574;51.072;17.174;2022-09-09T06:11:27;63291.66;;;-139.42;100.00
9077;BME280;4574;51.072;17.174;2022-09-09T06:13:58;63291.66;;;-139.42;100.00
9077;BME280;4574;51.072;17.174;2022-09-09T06:16:29;63291.66;;;-139.42;100.00
9077;BME280;4574;51.072;17.174;2022-09-09T06:19:01;63291.66;;;-139.42;100.00
9077;BME280;4574;51.072;17.174;2022-09-09T06:21:32;63291.66;;;-139.42;100.00
9077;BME280;4574;51.072;17.174;2022-09-09T06:24:01;63291.66;;;-139.42;100.00
9077;BME280;4574;51.072;17.174;2022-09-09T06:26:32;63291.66;;;-139.42;100.00
9077;BME280;4574;51.072;17.174;2022-09-09T06:29:03;63291.66;;;-139.42;100.00
9077;BME280;4574;51.072;17.174;2022-09-09T06:31:33;63291.66;;;-139.42;100.00
9077;BME280;4574;51.072;17.174;2022-09-09T06:34:07;63291.66;;;-139.42;100.00
9077;BME280;4574;51.072;17.174;2022-09-09T06:36:37;63291.66;;;-139.42;100.00
9077;BME280;4574;51.072;17.174;2022-09-09T06:39:06;63291.66;;;-139.42;100.00
9077;BME280;4574;51.072;17.174;2022-09-09T06:41:41;63291.66;;;-139.42;100.00
9077;BME280;4574;51.072;17.174;2022-09-09T06:44:10;63291.66;;;-139.42;100.00
9077;BME280;4574;51.072;17.174;2022-09-09T06:46:40;63291.66;;;-139.42;100.00
9077;BME280;4574;51.072;17.174;2022-09-09T06:49:10;63291.66;;;-139.42;100.00
9077;BME280;4574;51.072;17.174;2022-09-09T06:51:39;63291.66;;;-139.42;100.00
9077;BME280;4574;51.072;17.174;2022-09-09T06:54:10;63291.66;;;-139.42;100.00
9077;BME280;4574;51.072;17.174;2022-09-09T06:56:40;63291.66;;;-139.42;100.00
9077;BME280;4574;51.072;17.174;2022-09-09T06:59:10;63291.66;;;-139.42;100.00
9077;BME280;4574;51.072;17.174;2022-09-09T07:01:40;63291.66;;;-139.42;100.00
9077;BME280;4574;51.072;17.174;2022-09-09T07:04:12;63291.66;;;-139.42;100.00
9077;BME280;4574;51.072;17.174;2022-09-09T07:06:42;63291.66;;;-139.42;100.00
9077;BME280;4574;51.072;17.174;2022-09-09T07:09:12;63291.66;;;-139.42;100.00
9077;BME280;4574;51.072;17.174;2022-09-09T07:11:43;63291.66;;;-139.42;100.00
9077;BME280;4574;51.072;17.174;2022-09-09T07:14:13;63291.66;;;-139.42;100.00
9077;BME280;4574;51.072;17.174;2022-09-09T07:16:43;63291.66;;;-139.42;100.00
9077;BME280;4574;51.072;17.174;2022-09-09T07:19:15;63291.66;;;-139.42;100.00
9077;BME280;4574;51.072;17.174;2022-09-09T07:21:44;63291.66;;;-139.42;100.00
9077;BME280;4574;51.072;17.174;2022-09-09T07:24:13;63291.66;;;-139.42;100.00
9077;BME280;4574;51.072;17.174;2022-09-09T07:26:42;63291.66;;;-139.42;100.00
9077;BME280;4574;51.072;17.174;2022-09-09T07:29:12;63291.66;;;-139.42;100.00
9077;BME280;4574;51.072;17.174;2022-09-09T07:31:46;63291.66;;;-139.42;100.00
9077;BME280;4574;51.072;17.174;2022-09-09T07:34:17;63291.66;;;-139.42;100.00
9077;BME280;4574;51.072;17.174;2022-09-09T07:36:46;63291.66;;;-139.42;100.00
9077;BME280;4574;51.072;17.174;2022-09-09T07:39:16;63291.66;;;-139.42;100.00
9077;BME280;4574;51.072;17.174;2022-09-09T07:41:46;63291.66;;;-139.42;100.00
9077;BME280;4574;51.072;17.174;2022-09-09T07:44:17;63291.66;;;-139.42;100.00
9077;BME280;4574;51.072;17.174;2022-09-09T07:46:48;63291.66;;;-139.42;100.00
9077;BME280;4574;51.072;17.174;2022-09-09T07:49:18;63291.66;;;-139.42;100.00
9077;BME280;4574;51.072;17.174;2022-09-09T07:51:56;63291.66;;;-139.42;100.00
9077;BME280;4574;51.072;17.174;2022-09-09T07:54:25;63291.66;;;-139.42;100.00
9077;BME280;4574;51.072;17.174;2022-09-09T07:56:54;63291.66;;;-139.42;100.00
9077;BME280;4574;51.072;17.174;2022-09-09T07:59:23;63291.66;;;-139.42;100.00
9077;BME280;4574;51.072;17.174;2022-09-09T08:01:52;63291.66;;;-139.42;100.00
9077;BME280;4574;51.072;17.174;2022-09-09T08:04:24;63291.66;;;-139.42;100.00
9077;BME280;4574;51.072;17.174;2022-09-09T08:06:55;63291.66;;;-139.42;100.00
9077;BME280;4574;51.072;17.174;2022-09-09T08:09:25;63291.66;;;-139.42;100.00
9077;BME280;4574;51.072;17.174;2022-09-09T08:11:57;63291.66;;;-139.42;100.00
9077;BME280;4574;51.072;17.174;2022-09-09T08:14:27;63291.66;;;-139.42;100.00
9077;BME280;4574;51.072;17.174;2022-09-09T08:16:56;63291.66;;;-139.42;100.00
9077;BME280;4574;51.072;17.174;2022-09-09T08:19:27;63291.66;;;-139.42;100.00
9077;BME280;4574;51.072;17.174;2022-09-09T08:21:57;63291.66;;;-139.42;100.00
9077;BME280;4574;51.072;17.174;2022-09-09T08:24:25;63291.66;;;-139.42;100.00
9077;BME280;4574;51.072;17.174;2022-09-09T08:26:54;63291.66;;;-139.42;100.00
9077;BME280;4574;51.072;17.174;2022-09-09T08:29:23;63291.66;;;-139.42;100.00
9077;BME280;4574;51.072;17.174;2022-09-09T08:31:53;63291.66;;;-139.42;100.00
9077;BME280;4574;51.072;17.174;2022-09-09T08:34:23;63291.66;;;-139.42;100.00
9077;BME280;4574;51.072;17.174;2022-09-09T08:36:55;63291.66;;;-139.42;100.00
9077;BME280;4574;51.072;17.174;2022-09-09T08:39:24;63291.66;;;-139.42;100.00
9077;BME280;4574;51.072;17.174;2022-09-09T08:42:11;63291.66;;;-139.42;100.00
9077;BME280;4574;51.072;17.174;2022-09-09T08:44:58;63291.66;;;-139.42;100.00
9077;BME280;4574;51.072;17.174;2022-09-09T08:47:37;63291.66;;;-139.42;100.00
9077;BME280;4574;51.072;17.174;2022-09-09T08:50:18;63291.66;;;-139.42;100.00
9077;BME280;4574;51.072;17.174;2022-09-09T08:52:54;63291.66;;;-139.42;100.00
9077;BME280;4574;51.072;17.174;2022-09-09T08:55:28;63291.66;;;-139.42;100.00
9077;BME280;4574;51.072;17.174;2022-09-09T08:58:12;63291.66;;;-139.42;100.00
9077;BME280;4574;51.072;17.174;2022-09-09T09:00:57;63291.66;;;-139.42;100.00
9077;BME280;4574;51.072;17.174;2022-09-09T09:03:37;63291.66;;;-139.42;100.00
9077;BME280;4574;51.072;17.174;2022-09-09T09:06:23;63291.66;;;-139.42;100.00
9077;BME280;4574;51.072;17.174;2022-09-09T09:09:02;63291.66;;;-139.42;100.00
9077;BME280;4574;51.072;17.174;2022-09-09T09:11:36;63291.66;;;-139.42;100.00
9077;BME280;4574;51.072;17.174;2022-09-09T09:14:09;63291.66;;;-139.42;100.00
9077;BME280;4574;51.072;17.174;2022-09-09T09:16:46;63291.66;;;-139.42;100.00
9077;BME280;4574;51.072;17.174;2022-09-09T09:19:17;63291.66;;;-139.42;100.00
9077;BME280;4574;51.072;17.174;2022-09-09T09:21:54;63291.66;;;-139.42;100.00
9077;BME280;4574;51.072;17.174;2022-09-09T09:24:36;63291.66;;;-139.42;100.00
9077;BME280;4574;51.072;17.174;2022-09-09T09:27:13;63291.66;;;-139.42;100.00
9077;BME280;4574;51.072;17.174;2022-09-09T09:29:43;63291.66;;;-139.42;100.00
9077;BME280;4574;51.072;17.174;2022-09-09T09:32:34;63291.66;;;-139.42;100.00
9077;BME280;4574;51.072;17.174;2022-09-09T09:35:10;63291.66;;;-139.42;100.00
9077;BME280;4574;51.072;17.174;2022-09-09T09:37:41;63291.66;;;-139.42;100.00
9077;BME280;4574;51.072;17.174;2022-09-09T09:40:32;63291.66;;;-139.42;100.00
9077;BME280;4574;51.072;17.174;2022-09-09T09:43:01;63291.66;;;-139.42;100.00
9077;BME280;4574;51.072;17.174;2022-09-09T09:45:41;63291.66;;;-139.42;100.00
9077;BME280;4574;51.072;17.174;2022-09-09T09:48:32;63291.66;;;-139.42;100.00
9077;BME280;4574;51.072;17.174;2022-09-09T09:51:06;63291.66;;;-139.42;100.00
9077;BME280;4574;51.072;17.174;2022-09-09T09:53:38;63291.66;;;-139.42;100.00
9077;BME280;4574;51.072;17.174;2022-09-09T09:56:10;63291.66;;;-139.42;100.00
9077;BME280;4574;51.072;17.174;2022-09-09T09:58:49;63291.66;;;-139.42;100.00
9077;BME280;4574;51.072;17.174;2022-09-09T10:01:21;63291.66;;;-139.42;100.00
9077;BME280;4574;51.072;17.174;2022-09-09T10:03:52;63291.66;;;-139.42;100.00
9077;BME280;4574;51.072;17.174;2022-09-09T10:06:30;63291.66;;;-139.42;100.00
9077;BME280;4574;51.072;17.174;2022-09-09T10:09:01;63291.66;;;-139.42;100.00
9077;BME280;4574;51.072;17.174;2022-09-09T10:11:44;63291.66;;;-139.42;100.00
9077;BME280;4574;51.072;17.174;2022-09-09T10:14:19;63291.66;;;-139.42;100.00
9077;BME280;4574;51.072;17.174;2022-09-09T10:17:01;63291.66;;;-139.42;100.00
9077;BME280;4574;51.072;17.174;2022-09-09T10:19:33;63291.66;;;-139.42;100.00
9077;BME280;4574;51.072;17.174;2022-09-09T10:22:09;63291.66;;;-139.42;100.00
9077;BME280;4574;51.072;17.174;2022-09-09T10:24:54;63291.66;;;-139.42;100.00
9077;BME280;4574;51.072;17.174;2022-09-09T10:27:33;63291.66;;;-139.42;100.00
9077;BME280;4574;51.072;17.174;2022-09-09T10:30:13;63291.66;;;-139.42;100.00
9077;BME280;4574;51.072;17.174;2022-09-09T10:32:48;63291.66;;;-139.42;100.00
9077;BME280;4574;51.072;17.174;2022-09-09T10:35:25;63291.66;;;-139.42;100.00
9077;BME280;4574;51.072;17.174;2022-09-09T10:38:16;63291.66;;;-139.42;100.00
9077;BME280;4574;51.072;17.174;2022-09-09T10:41:01;63291.66;;;-139.42;100.00
9077;BME280;4574;51.072;17.174;2022-09-09T10:43:48;63291.66;;;-139.42;100.00
9077;BME280;4574;51.072;17.174;2022-09-09T10:46:31;63291.66;;;-139.42;100.00
9077;BME280;4574;51.072;17.174;2022-09-09T10:49:10;63291.66;;;-139.42;100.00
9077;BME280;4574;51.072;17.174;2022-09-09T10:51:56;63291.66;;;-139.42;100.00
9077;BME280;4574;51.072;17.174;2022-09-09T10:54:38;63291.66;;;-139.42;100.00
9077;BME280;4574;51.072;17.174;2022-09-09T10:57:15;63291.66;;;-139.42;100.00
9077;BME280;4574;51.072;17.174;2022-09-09T10:59:49;63291.66;;;-139.42;100.00
9077;BME280;4574;51.072;17.174;2022-09-09T11:02:26;63291.66;;;-139.42;100.00
9077;BME280;4574;51.072;17.174;2022-09-09T11:04:57;63291.66;;;-139.42;100.00
9077;BME280;4574;51.072;17.174;2022-09-09T11:07:35;63291.66;;;-139.42;100.00
9077;BME280;4574;51.072;17.174;2022-09-09T11:10:17;63291.66;;;-139.42;100.00
9077;BME280;4574;51.072;17.174;2022-09-09T11:12:50;63291.66;;;-139.42;100.00
9077;BME280;4574;51.072;17.174;2022-09-09T11:15:29;63291.66;;;-139.42;100.00
9077;BME280;4574;51.072;17.174;2022-09-09T11:18:01;63291.66;;;-139.42;100.00
9077;BME280;4574;51.072;17.174;2022-09-09T11:20:33;63291.66;;;-139.42;100.00
9077;BME280;4574;51.072;17.174;2022-09-09T11:23:05;63291.66;;;-139.42;100.00
9077;BME280;4574;51.072;17.174;2022-09-09T11:25:40;63291.66;;;-139.42;100.00
9077;BME280;4574;51.072;17.174;2022-09-09T11:28:28;63291.66;;;-139.42;100.00
9077;BME280;4574;51.072;17.174;2022-09-09T11:31:17;63291.66;;;-139.42;100.00
9077;BME280;4574;51.072;17.174;2022-09-09T11:34:08;63291.66;;;-139.42;100.00
9077;BME280;4574;51.072;17.174;2022-09-09T11:36:56;63291.66;;;-139.42;100.00
9077;BME280;4574;51.072;17.174;2022-09-09T11:39:47;63291.66;;;-139.42;100.00
9077;BME280;4574;51.072;17.174;2022-09-09T11:42:23;63291.66;;;-139.42;100.00
9077;BME280;4574;51.072;17.174;2022-09-09T11:44:53;63291.66;;;-139.42;100.00
9077;BME280;4574;51.072;17.174;2022-09-09T11:47:26;63291.66;;;-139.42;100.00
9077;BME280;4574;51.072;17.174;2022-09-09T11:50:22;63291.66;;;-139.42;100.00
9077;BME280;4574;51.072;17.174;2022-09-09T11:53:05;63291.66;;;-139.42;100.00
9077;BME280;4574;51.072;17.174;2022-09-09T11:55:35;63291.66;;;-139.42;100.00
9077;BME280;4574;51.072;17.174;2022-09-09T11:58:06;63291.66;;;-139.42;100.00
9077;BME280;4574;51.072;17.174;2022-09-09T12:00:45;63291.66;;;-139.42;100.00
9077;BME280;4574;51.072;17.174;2022-09-09T12:03:33;63291.66;;;-139.42;100.00
9077;BME280;4574;51.072;17.174;2022-09-09T12:06:16;99951.59;;;27.74;65.70
9077;BME280;4574;51.072;17.174;2022-09-09T12:08:52;99949.16;;;27.77;62.15
9077;BME280;4574;51.072;17.174;2022-09-09T12:11:26;99949.16;;;27.36;63.91
9077;BME280;4574;51.072;17.174;2022-09-09T12:13:58;99941.06;;;27.46;64.34
9077;BME280;4574;51.072;17.174;2022-09-09T12:16:33;99941.94;;;27.56;64.86
9077;BME280;4574;51.072;17.174;2022-09-09T12:19:06;99919.75;;;27.74;64.60
9077;BME280;4574;51.072;17.174;2022-09-09T12:21:49;99929.72;;;28.10;64.91
9077;BME280;4574;51.072;17.174;2022-09-09T12:24:24;99935.78;;;28.27;61.25
9077;BME280;4574;51.072;17.174;2022-09-09T12:26:59;99927.28;;;28.14;60.32
9077;BME280;4574;51.072;17.174;2022-09-09T12:29:38;99926.44;;;28.08;58.94
9077;BME280;4574;51.072;17.174;2022-09-09T12:32:13;99935.97;;;28.06;59.75
9077;BME280;4574;51.072;17.174;2022-09-09T12:34:47;99921.03;;;28.18;60.77
9077;BME280;4574;51.072;17.174;2022-09-09T12:37:25;99930.31;;;28.22;60.55
9077;BME280;4574;51.072;17.174;2022-09-09T12:39:57;99936.38;;;28.34;58.80
9077;BME280;4574;51.072;17.174;2022-09-09T12:42:26;99928.50;;;28.53;59.82
9077;BME280;4574;51.072;17.174;2022-09-09T12:44:57;99934.50;;;28.70;58.29
9077;BME280;4574;51.072;17.174;2022-09-09T12:47:32;99937.03;;;28.91;59.49
9077;BME280;4574;51.072;17.174;2022-09-09T12:50:16;99946.03;;;29.11;58.67
9077;BME280;4574;51.072;17.174;2022-09-09T12:52:47;99954.75;;;29.13;59.61
9077;BME280;4574;51.072;17.174;2022-09-09T12:55:18;99947.13;;;29.20;59.65
9077;BME280;4574;51.072;17.174;2022-09-09T12:57:49;99953.91;;;29.38;59.06
9077;BME280;4574;51.072;17.174;2022-09-09T13:00:20;99938.91;;;29.35;57.73
9077;BME280;4574;51.072;17.174;2022-09-09T13:02:51;99926.94;;;29.11;56.18
9077;BME280;4574;51.072;17.174;2022-09-09T13:05:23;99930.75;;;29.10;56.82
9077;BME280;4574;51.072;17.174;2022-09-09T13:08:00;99945.75;;;29.18;57.37
9077;BME280;4574;51.072;17.174;2022-09-09T13:10:32;99938.66;;;29.12;55.02
9077;BME280;4574;51.072;17.174;2022-09-09T13:13:22;99942.75;;;28.99;54.44
9077;BME280;4574;51.072;17.174;2022-09-09T13:15:53;99924.47;;;28.90;57.17
9077;BME280;4574;51.072;17.174;2022-09-09T13:18:23;99925.84;;;28.87;56.59